Coqueiro Seco, Brazil
Current Conditions -  °F | °C
As of 7:00 PM on Friday 19 Dec 2014 (Local Time) from SBMO Reporting Station
Clear Clear  
Wind Chill: 77°   Ceiling: Unl
Heat Index: 78°   Visibility: 6mi
Dew Point: 72°   Wind: 13mph
Humidity: 83%   Direction: 80°E
Pressure: 29.91"   Gusts: NA
Location:  9.64°S, 35.8°W
Report Text: SBMO 192200Z 08011KT CAVOK 25/22 Q1013
Loading
Personal Weather Stations






























Interactive Weather Map New forecast layout! Learn more

10-Day Weather Forecast

Advertisements
Track Severe Weather on mobile